LXGB/GIB METAR and TAF weather

Enter ICAO airport designator
Station Type Date Time Source
LXGB METAR 2019/04/25 17:50 UTC NOAA

LXGB 251750Z 26018KT 9999 FEW040 SCT060 18/09 Q1019 NOSIG


Station Type Date Time Source
LXGB Decoded METAR 2019/04/25 17:50 UTC NOAA

Gibraltar, Gibraltar (LXGB) 36-09N 005-21W 0M
Apr 25, 2019 - 01:50 PM EDT / 2019.04.25 1750 UTC
Wind: from the W (260 degrees) at 21 MPH (18 KT):0
Visibility: greater than 7 mile(s):0
Sky conditions: partly cloudy
Temperature: 64 F (18 C)
Dew Point: 48 F (9 C)
Relative Humidity: 55%
Pressure (altimeter): 30.09 in. Hg (1019 hPa)
ob: LXGB 251750Z 26018KT 9999 FEW040 SCT060 18/09 Q1019 NOSIG
cycle: 18

Station Type Date Time Source
LXGB TAF 2019/01/30 21:20 UTC NOAA

TAF LXGB 302113Z 3021/3123 CNL

Example: see airport list